Time;durP1;ratioP1;P1;durP2;ratioP2;P2;SDS_P1;SDS_P2;PMS_P1;PMS_P2;Temp;Humidity;BMP_temperature;BMP_pressure;BME280_temperature;BME280_humidity;BME280_pressure;Samples;Min_cycle;Max_cycle;Signal;HPM_P1;HPM_P2
2024/04/05 00:02:20;;;;;;;0.63;0.50;;;18.70;1.00;;;;;;2612398;47;20163;-60
2024/04/05 00:04:46;;;;;;;0.60;0.43;;;18.70;1.00;;;;;;2609585;47;20180;-61
2024/04/05 00:07:12;;;;;;;0.60;0.47;;;18.70;1.00;;;;;;2612010;47;20407;-57
2024/04/05 00:09:41;;;;;;;0.70;0.50;;;18.70;1.00;;;;;;2612726;47;20178;-58
2024/04/05 00:12:07;;;;;;;0.70;0.50;;;18.70;1.00;;;;;;2613222;54;20411;-59
2024/04/05 00:14:33;;;;;;;0.63;0.50;;;18.70;1.00;;;;;;2613060;54;20450;-59
2024/04/05 00:16:59;;;;;;;0.60;0.50;;;18.70;1.00;;;;;;2612999;54;20546;-59
2024/04/05 00:19:25;;;;;;;0.60;0.40;;;18.70;1.00;;;;;;2613706;54;20151;-59
2024/04/05 00:21:50;;;;;;;0.67;0.50;;;18.70;1.00;;;;;;2612771;54;20162;-58
2024/04/05 00:24:16;;;;;;;0.60;0.50;;;18.70;1.00;;;;;;2612511;54;20173;-59
2024/04/05 00:26:41;;;;;;;0.70;0.60;;;18.70;1.00;;;;;;2613301;39;20655;-59
2024/04/05 00:29:07;;;;;;;0.63;0.50;;;18.70;1.00;;;;;;2613089;54;20197;-59
2024/04/05 00:31:34;;;;;;;0.70;0.60;;;18.70;1.00;;;;;;2612956;47;20207;-59
2024/04/05 00:34:00;;;;;;;0.60;0.50;;;18.70;1.00;;;;;;2612661;47;20403;-59
2024/04/05 00:36:26;;;;;;;0.67;0.60;;;18.70;1.00;;;;;;2612802;54;20430;-63
2024/04/05 00:38:54;;;;;;;0.60;0.50;;;18.70;1.00;;;;;;2612536;47;20696;-62
2024/04/05 00:41:20;;;;;;;0.70;0.50;;;18.70;1.00;;;;;;2612796;54;20696;-63
2024/04/05 00:43:47;;;;;;;0.70;0.50;;;18.70;1.00;;;;;;2613139;54;20956;-63
2024/04/05 00:46:13;;;;;;;0.70;0.50;;;18.70;1.00;;;;;;2613421;39;20820;-65
2024/04/05 00:48:39;;;;;;;0.70;0.50;;;18.70;1.00;;;;;;2613117;54;20439;-64
2024/04/05 00:51:07;;;;;;;0.70;0.50;;;18.70;1.00;;;;;;2613164;54;20169;-66
2024/04/05 00:53:34;;;;;;;0.60;0.50;;;18.70;1.00;;;;;;2612809;54;20499;-66
2024/04/05 00:56:01;;;;;;;0.70;0.50;;;18.70;1.00;;;;;;2612633;47;20431;-65
2024/04/05 00:58:27;;;;;;;0.63;0.50;;;18.70;1.00;;;;;;2613395;39;20903;-65
2024/04/05 01:00:53;;;;;;;0.70;0.50;;;18.70;1.00;;;;;;2612100;54;20415;-66
2024/04/05 01:03:19;;;;;;;0.70;0.50;;;18.70;1.00;;;;;;2612156;54;20407;-66
2024/04/05 01:05:49;;;;;;;0.67;0.60;;;18.70;1.00;;;;;;2612057;47;20166;-66
2024/04/05 01:08:16;;;;;;;0.70;0.50;;;18.70;1.00;;;;;;2612827;54;20423;-65
2024/04/05 01:10:43;;;;;;;0.70;0.50;;;18.70;1.00;;;;;;2612867;54;20416;-65
2024/04/05 01:13:11;;;;;;;0.60;0.50;;;18.70;1.00;;;;;;2612567;54;20413;-65
2024/04/05 01:15:38;;;;;;;0.63;0.60;;;18.70;1.00;;;;;;2612900;54;20494;-66
2024/04/05 01:18:06;;;;;;;0.70;0.50;;;18.70;1.00;;;;;;2613021;47;20924;-66
2024/04/05 01:20:34;;;;;;;0.60;0.40;;;18.70;1.00;;;;;;2612682;54;20423;-65
2024/04/05 01:23:04;;;;;;;0.60;0.50;;;18.70;1.00;;;;;;2613555;39;20737;-65
2024/04/05 01:25:31;;;;;;;0.70;0.50;;;18.70;1.00;;;;;;2612829;54;20900;-67
2024/04/05 01:27:58;;;;;;;0.60;0.50;;;18.70;1.00;;;;;;2612805;54;20423;-67
2024/04/05 01:30:24;;;;;;;0.60;0.50;;;18.70;1.00;;;;;;2612637;54;20418;-66
2024/04/05 01:32:56;;;;;;;0.70;0.50;;;18.70;1.00;;;;;;2612455;54;20538;-66
2024/04/05 01:35:21;;;;;;;0.63;0.50;;;18.70;1.00;;;;;;2612684;54;20163;-66
2024/04/05 01:37:47;;;;;;;0.67;0.50;;;18.70;1.00;;;;;;2612825;54;20448;-66
2024/04/05 01:40:13;;;;;;;0.70;0.60;;;18.70;1.00;;;;;;2612763;54;20157;-66
2024/04/05 01:42:39;;;;;;;0.70;0.60;;;18.70;1.00;;;;;;2612352;54;20861;-66
2024/04/05 01:45:05;;;;;;;0.70;0.60;;;18.70;1.00;;;;;;2612800;47;20456;-64
2024/04/05 01:47:31;;;;;;;0.60;0.50;;;18.70;1.00;;;;;;2612472;54;20201;-65
2024/04/05 01:49:57;;;;;;;0.70;0.50;;;18.70;1.00;;;;;;2612871;54;20402;-66
2024/04/05 01:52:22;;;;;;;0.60;0.50;;;18.70;1.00;;;;;;2613203;47;20419;-64
2024/04/05 01:54:48;;;;;;;0.60;0.50;;;18.70;1.00;;;;;;2613384;54;20473;-72
2024/04/05 01:57:14;;;;;;;0.70;0.50;;;18.70;1.00;;;;;;2613751;39;20583;-66
2024/04/05 01:59:46;;;;;;;0.70;0.60;;;18.70;1.00;;;;;;2613298;54;20431;-66
2024/04/05 02:02:12;;;;;;;0.70;0.50;;;18.70;1.00;;;;;;2613289;39;20523;-66
2024/04/05 02:04:38;;;;;;;0.60;0.50;;;18.70;1.00;;;;;;2613249;54;20434;-66
2024/04/05 02:07:03;;;;;;;0.60;0.50;;;18.70;1.00;;;;;;2612930;47;20182;-66
2024/04/05 02:09:29;;;;;;;0.70;0.50;;;18.70;1.00;;;;;;2613461;47;20176;-66
2024/04/05 02:11:55;;;;;;;0.60;0.50;;;18.70;1.00;;;;;;2613313;54;20289;-66
2024/04/05 02:14:21;;;;;;;0.70;0.60;;;18.60;1.00;;;;;;2613823;54;20695;-65
2024/04/05 02:16:46;;;;;;;0.63;0.53;;;18.70;1.00;;;;;;2613609;54;20681;-66
2024/04/05 02:19:12;;;;;;;0.70;0.50;;;18.70;1.00;;;;;;2613621;47;20175;-66
2024/04/05 02:21:38;;;;;;;0.60;0.50;;;18.70;1.00;;;;;;2612635;54;20245;-66
2024/04/05 02:24:03;;;;;;;0.60;0.50;;;18.70;1.00;;;;;;2613312;54;20206;-67
2024/04/05 02:26:29;;;;;;;0.70;0.50;;;18.70;1.00;;;;;;2613564;39;20965;-65
2024/04/05 02:28:55;;;;;;;0.60;0.50;;;18.70;1.00;;;;;;2613151;54;20921;-65
2024/04/05 02:31:20;;;;;;;0.60;0.50;;;18.70;1.00;;;;;;2612853;54;20665;-65
2024/04/05 02:33:46;;;;;;;0.70;0.60;;;18.70;1.00;;;;;;2613342;39;20788;-64
2024/04/05 02:36:12;;;;;;;0.67;0.60;;;18.70;1.00;;;;;;2612791;54;20154;-65
2024/04/05 02:38:37;;;;;;;0.67;0.60;;;18.70;1.00;;;;;;2612995;47;20166;-66
2024/04/05 02:41:07;;;;;;;0.70;0.60;;;18.60;1.00;;;;;;2613229;54;20159;-66
2024/04/05 02:43:33;;;;;;;0.70;0.60;;;18.70;1.00;;;;;;2612982;47;20170;-65
2024/04/05 02:45:59;;;;;;;0.70;0.50;;;18.60;1.00;;;;;;2613322;39;21290;-65
2024/04/05 02:48:25;;;;;;;0.70;0.50;;;18.60;1.00;;;;;;2612419;47;20426;-64
2024/04/05 02:50:51;;;;;;;0.60;0.50;;;18.60;1.00;;;;;;2612590;47;20427;-64
2024/04/05 02:53:19;;;;;;;0.70;0.60;;;18.60;1.00;;;;;;2612719;54;20206;-63
2024/04/05 02:55:45;;;;;;;0.70;0.60;;;18.60;1.00;;;;;;2613278;54;20195;-66
2024/04/05 02:58:12;;;;;;;0.70;0.60;;;18.60;1.00;;;;;;2612518;54;20432;-66
2024/04/05 03:00:38;;;;;;;0.70;0.60;;;18.60;1.00;;;;;;2612726;54;20411;-65
2024/04/05 03:03:05;;;;;;;0.70;0.50;;;18.60;1.00;;;;;;2612337;54;20423;-66
2024/04/05 03:05:31;;;;;;;0.70;0.60;;;18.60;1.00;;;;;;2612770;54;20423;-59
2024/04/05 03:07:57;;;;;;;0.70;0.53;;;18.60;1.00;;;;;;2613033;54;20395;-60
2024/04/05 03:10:23;;;;;;;0.70;0.50;;;18.60;1.00;;;;;;2612843;47;20427;-59
2024/04/05 03:12:52;;;;;;;0.70;0.60;;;18.60;1.00;;;;;;2612598;47;20439;-60
2024/04/05 03:15:18;;;;;;;0.70;0.50;;;18.60;1.00;;;;;;2612710;54;20420;-61
2024/04/05 03:17:44;;;;;;;0.63;0.50;;;18.60;1.00;;;;;;2612760;47;20423;-60
2024/04/05 03:20:13;;;;;;;0.60;0.50;;;18.60;1.00;;;;;;2613267;46;21071;-60
2024/04/05 03:22:39;;;;;;;0.67;0.60;;;18.60;1.00;;;;;;2613093;39;20780;-60
2024/04/05 03:25:05;;;;;;;0.70;0.50;;;18.60;1.00;;;;;;2613022;47;20466;-60
2024/04/05 03:27:31;;;;;;;0.70;0.50;;;18.60;1.00;;;;;;2612502;47;20532;-60
2024/04/05 03:29:57;;;;;;;0.70;0.50;;;18.60;1.00;;;;;;2612505;54;21047;-60
2024/04/05 03:32:22;;;;;;;0.60;0.50;;;18.60;1.00;;;;;;2612450;47;20685;-60
2024/04/05 03:34:48;;;;;;;0.70;0.50;;;18.60;1.00;;;;;;2612537;47;20169;-60
2024/04/05 03:37:14;;;;;;;0.67;0.50;;;18.60;1.00;;;;;;2612634;54;20707;-60
2024/04/05 03:39:40;;;;;;;1.63;1.53;;;18.60;1.00;;;;;;2612663;54;20414;-59
2024/04/05 03:42:06;;;;;;;0.70;0.50;;;18.60;1.00;;;;;;2612748;54;20285;-61
2024/04/05 03:44:32;;;;;;;0.70;0.60;;;18.60;1.00;;;;;;2612876;47;20166;-60
2024/04/05 03:46:57;;;;;;;0.70;0.50;;;18.60;1.00;;;;;;2612759;54;20502;-62
2024/04/05 03:49:25;;;;;;;0.60;0.40;;;18.60;1.00;;;;;;2612939;39;20814;-60
2024/04/05 03:51:50;;;;;;;0.70;0.60;;;18.60;1.00;;;;;;2612816;39;20629;-60
2024/04/05 03:54:16;;;;;;;0.67;0.50;;;18.60;1.00;;;;;;2612688;47;20447;-61
2024/04/05 03:56:42;;;;;;;0.70;0.60;;;18.60;1.00;;;;;;2613026;39;20693;-62
2024/04/05 03:59:08;;;;;;;0.70;0.40;;;18.60;1.00;;;;;;2612686;47;20155;-61
2024/04/05 04:01:34;;;;;;;0.60;0.50;;;18.60;1.00;;;;;;2612247;47;20158;-61
2024/04/05 04:03:59;;;;;;;0.70;0.50;;;18.60;1.00;;;;;;2612986;31;21040;-59
2024/04/05 04:06:25;;;;;;;0.60;0.50;;;18.60;1.00;;;;;;2612170;47;20162;-63
2024/04/05 04:08:51;;;;;;;0.63;0.40;;;18.60;1.00;;;;;;2612645;54;20323;-62
2024/04/05 04:11:20;;;;;;;0.70;0.57;;;18.60;1.00;;;;;;2612860;54;20163;-61
2024/04/05 04:13:46;;;;;;;0.70;0.60;;;18.60;1.00;;;;;;2612514;54;20171;-61
2024/04/05 04:16:11;;;;;;;0.70;0.50;;;18.50;1.00;;;;;;2612818;47;20423;-62
2024/04/05 04:18:37;;;;;;;0.70;0.57;;;18.60;1.00;;;;;;2612477;47;20171;-62
2024/04/05 04:21:05;;;;;;;0.60;0.50;;;18.60;1.00;;;;;;2612406;54;20174;-63
2024/04/05 04:23:31;;;;;;;0.60;0.50;;;18.60;1.00;;;;;;2612606;39;20756;-62
2024/04/05 04:26:00;;;;;;;0.70;0.50;;;18.60;1.00;;;;;;2612575;54;20399;-61
2024/04/05 04:28:27;;;;;;;0.60;0.50;;;18.60;1.00;;;;;;2612560;51;20565;-63
2024/04/05 04:30:53;;;;;;;0.70;0.50;;;18.60;1.00;;;;;;2612559;54;20415;-63
2024/04/05 04:33:20;;;;;;;0.60;0.50;;;18.60;1.00;;;;;;2612325;54;20428;-62
2024/04/05 04:35:45;;;;;;;0.70;0.50;;;18.60;1.00;;;;;;2612294;54;20525;-64
2024/04/05 04:38:12;;;;;;;0.60;0.40;;;18.60;1.00;;;;;;2612637;54;20169;-63
2024/04/05 04:40:38;;;;;;;0.70;0.60;;;18.60;1.00;;;;;;2612670;47;20700;-63
2024/04/05 04:43:05;;;;;;;0.70;0.50;;;18.60;1.00;;;;;;2612251;54;20515;-63
2024/04/05 04:45:31;;;;;;;0.70;0.50;;;18.60;1.00;;;;;;2612334;54;20263;-62
2024/04/05 04:47:56;;;;;;;0.70;0.50;;;18.60;1.00;;;;;;2612444;47;20403;-62
2024/04/05 04:50:22;;;;;;;0.60;0.40;;;18.60;1.00;;;;;;2612702;47;20535;-63
2024/04/05 04:52:48;;;;;;;0.70;0.50;;;18.60;1.00;;;;;;2611925;54;20793;-63
2024/04/05 04:55:14;;;;;;;0.70;0.50;;;18.60;1.00;;;;;;2612232;54;20163;-62
2024/04/05 04:57:39;;;;;;;0.70;0.50;;;18.60;1.00;;;;;;2612412;47;20309;-63
2024/04/05 05:00:06;;;;;;;0.70;0.60;;;18.60;1.00;;;;;;2612058;54;20165;-63
2024/04/05 05:02:31;;;;;;;0.70;0.50;;;18.60;1.00;;;;;;2612457;47;20269;-62
2024/04/05 05:04:57;;;;;;;0.70;0.50;;;18.60;1.00;;;;;;2611855;54;20406;-62
2024/04/05 05:07:23;;;;;;;0.63;0.50;;;18.60;1.00;;;;;;2612228;54;20162;-62
2024/04/05 05:09:49;;;;;;;0.60;0.40;;;18.50;1.00;;;;;;2613121;31;20884;-63
2024/04/05 05:12:14;;;;;;;0.60;0.40;;;18.50;1.00;;;;;;2612267;54;20162;-63
2024/04/05 05:14:40;;;;;;;0.70;0.50;;;18.60;1.00;;;;;;2612229;54;20197;-62
2024/04/05 05:17:06;;;;;;;0.70;0.50;;;18.60;1.00;;;;;;2613251;47;21017;-73
2024/04/05 05:19:32;;;;;;;0.70;0.50;;;18.60;1.00;;;;;;2612621;54;20186;-73
2024/04/05 05:21:58;;;;;;;0.70;0.50;;;18.60;1.00;;;;;;2612333;54;20427;-73
2024/04/05 05:24:24;;;;;;;0.70;0.50;;;18.60;1.00;;;;;;2612206;47;20411;-73
2024/04/05 05:26:49;;;;;;;0.70;0.50;;;18.60;1.00;;;;;;2613567;47;20170;-67
2024/04/05 05:29:15;;;;;;;0.70;0.60;;;18.50;1.00;;;;;;2613420;46;20167;-65
2024/04/05 05:31:41;;;;;;;0.70;0.53;;;18.50;1.00;;;;;;2612872;54;20214;-67
2024/04/05 05:34:07;;;;;;;0.60;0.50;;;18.60;1.00;;;;;;2613212;54;20175;-66
2024/04/05 05:36:33;;;;;;;0.63;0.50;;;18.50;1.00;;;;;;2612770;54;20166;-66
2024/04/05 05:39:00;;;;;;;0.70;0.50;;;18.50;1.00;;;;;;2612992;54;20941;-67
2024/04/05 05:41:27;;;;;;;0.70;0.50;;;18.50;1.00;;;;;;2613309;54;20415;-66
2024/04/05 05:43:52;;;;;;;0.70;0.50;;;18.60;1.00;;;;;;2612587;54;20471;-67
2024/04/05 05:46:18;;;;;;;0.70;0.50;;;18.50;1.00;;;;;;2612921;47;20419;-67
2024/04/05 05:48:44;;;;;;;0.70;0.50;;;18.50;1.00;;;;;;2613009;47;20174;-66
2024/04/05 05:51:09;;;;;;;0.70;0.60;;;18.50;1.00;;;;;;2612942;47;20166;-67
2024/04/05 05:53:35;;;;;;;0.60;0.50;;;18.50;1.00;;;;;;2613336;47;20277;-67
2024/04/05 05:56:02;;;;;;;0.70;0.50;;;18.60;1.00;;;;;;2613003;54;20699;-67
2024/04/05 05:58:29;;;;;;;0.63;0.50;;;18.50;1.00;;;;;;2612884;39;20801;-67
2024/04/05 06:00:54;;;;;;;0.70;0.50;;;18.50;1.00;;;;;;2612482;54;20924;-67
2024/04/05 06:03:20;;;;;;;0.70;0.50;;;18.50;1.00;;;;;;2612895;54;20475;-67
2024/04/05 06:05:51;;;;;;;0.70;0.50;;;18.60;1.00;;;;;;2612992;54;20154;-66
2024/04/05 06:08:17;;;;;;;0.70;0.50;;;18.60;1.00;;;;;;2613280;54;20170;-67
2024/04/05 06:10:53;;;;;;;0.60;0.50;;;18.50;1.00;;;;;;2612531;47;21111;-67
2024/04/05 06:13:18;;;;;;;0.70;0.60;;;18.50;1.00;;;;;;2613103;39;20563;-67
2024/04/05 06:15:44;;;;;;;0.70;0.60;;;18.60;1.00;;;;;;2613455;39;20809;-67
2024/04/05 06:18:10;;;;;;;0.67;0.50;;;18.60;1.00;;;;;;2612775;47;20179;-66
2024/04/05 06:20:36;;;;;;;0.70;0.50;;;18.60;1.00;;;;;;2613322;47;20169;-66
2024/04/05 06:23:02;;;;;;;0.70;0.50;;;18.60;1.00;;;;;;2613229;50;20158;-67
2024/04/05 06:25:28;;;;;;;0.67;0.50;;;18.60;1.00;;;;;;2612873;54;20173;-67
2024/04/05 06:27:55;;;;;;;0.63;0.50;;;18.60;1.00;;;;;;2612631;54;20415;-67
2024/04/05 06:30:21;;;;;;;0.70;0.50;;;18.60;1.00;;;;;;2612788;51;20177;-67
2024/04/05 06:32:46;;;;;;;0.70;0.50;;;18.60;1.00;;;;;;2613157;54;20415;-66
2024/04/05 06:35:12;;;;;;;0.70;0.50;;;18.60;1.00;;;;;;2612212;54;20197;-63
2024/04/05 06:37:38;;;;;;;0.70;0.50;;;18.60;1.00;;;;;;2612251;54;20312;-62
2024/04/05 06:40:04;;;;;;;0.60;0.50;;;18.60;1.00;;;;;;2612264;54;20426;-63
2024/04/05 06:42:30;;;;;;;0.70;0.60;;;18.60;1.00;;;;;;2612224;47;20197;-64
2024/04/05 06:44:56;;;;;;;0.70;0.50;;;18.70;1.00;;;;;;2613088;54;20380;-63
2024/04/05 06:47:22;;;;;;;0.70;0.50;;;18.60;1.00;;;;;;2613231;54;20151;-62
2024/04/05 06:49:47;;;;;;;0.60;0.50;;;18.70;1.00;;;;;;2612426;54;20162;-65
2024/04/05 06:52:13;;;;;;;0.60;0.40;;;18.70;1.00;;;;;;2612966;54;20535;-62
2024/04/05 06:54:43;;;;;;;0.60;0.40;;;18.70;1.00;;;;;;2613068;50;20238;-62
2024/04/05 06:57:10;;;;;;;0.70;0.50;;;18.70;1.00;;;;;;2613574;39;20551;-63
2024/04/05 06:59:36;;;;;;;0.70;0.40;;;18.70;1.00;;;;;;2612119;54;20454;-62
2024/04/05 07:02:03;;;;;;;0.60;0.40;;;18.70;1.00;;;;;;2612541;54;20419;-62
2024/04/05 07:04:30;;;;;;;0.87;0.73;;;18.70;1.00;;;;;;2612625;47;20431;-62
2024/04/05 07:06:56;;;;;;;0.70;0.50;;;18.70;1.00;;;;;;2612916;54;20426;-62
2024/04/05 07:09:28;;;;;;;0.63;0.50;;;18.70;1.00;;;;;;2612744;47;20810;-62
2024/04/05 07:11:54;;;;;;;0.70;0.40;;;18.70;1.00;;;;;;2612782;54;20163;-63
2024/04/05 07:14:19;;;;;;;0.60;0.40;;;18.70;1.00;;;;;;2612679;47;20453;-63
2024/04/05 07:16:46;;;;;;;0.60;0.50;;;18.70;1.00;;;;;;2612676;54;20263;-63
2024/04/05 07:19:12;;;;;;;0.70;0.40;;;18.70;1.00;;;;;;2612730;47;20201;-62
2024/04/05 07:21:38;;;;;;;0.70;0.50;;;18.70;1.00;;;;;;2612918;54;20423;-63
2024/04/05 07:24:05;;;;;;;0.60;0.40;;;18.80;1.00;;;;;;2612676;47;20423;-62
2024/04/05 07:26:31;;;;;;;0.70;0.50;;;18.80;1.00;;;;;;2613093;54;20396;-61
2024/04/05 07:28:57;;;;;;;0.70;0.50;;;18.70;1.00;;;;;;2612825;54;20446;-63
2024/04/05 07:31:23;;;;;;;0.70;0.60;;;18.70;1.00;;;;;;2612525;54;20422;-63
2024/04/05 07:33:49;;;;;;;0.70;0.50;;;18.70;1.00;;;;;;2612538;47;20224;-63
2024/04/05 07:36:16;;;;;;;0.60;0.40;;;18.70;1.00;;;;;;2612503;47;20193;-63
2024/04/05 07:38:42;;;;;;;0.70;0.50;;;18.70;1.00;;;;;;2612856;54;20159;-62
2024/04/05 07:41:08;;;;;;;0.60;0.50;;;18.70;1.00;;;;;;2613674;39;20791;-62
2024/04/05 07:43:34;;;;;;;0.70;0.50;;;18.70;1.00;;;;;;2612170;54;20538;-63
2024/04/05 07:45:59;;;;;;;0.60;0.50;;;18.70;1.00;;;;;;2612712;47;20171;-60
2024/04/05 07:48:25;;;;;;;0.70;0.50;;;18.70;1.00;;;;;;2612549;54;20162;-60
2024/04/05 07:50:53;;;;;;;0.70;0.50;;;18.70;1.00;;;;;;2612460;39;21165;-60
2024/04/05 07:53:19;;;;;;;0.70;0.50;;;18.70;1.00;;;;;;2612087;54;20458;-61
2024/04/05 07:55:44;;;;;;;0.60;0.40;;;18.70;1.00;;;;;;2612717;54;20483;-62
2024/04/05 07:58:10;;;;;;;0.60;0.40;;;18.70;1.00;;;;;;2611886;47;20423;-62
2024/04/05 08:00:36;;;;;;;0.70;0.50;;;18.70;1.00;;;;;;2612423;39;20666;-61
2024/04/05 08:03:03;;;;;;;0.70;0.50;;;18.70;1.00;;;;;;2611618;54;20171;-61
2024/04/05 08:05:29;;;;;;;0.60;0.40;;;18.70;1.00;;;;;;2612413;54;20562;-61
2024/04/05 08:07:56;;;;;;;0.60;0.50;;;18.80;1.00;;;;;;2613047;39;20451;-60
2024/04/05 08:10:22;;;;;;;0.60;0.40;;;18.80;1.00;;;;;;2612432;54;21008;-61
2024/04/05 08:12:50;;;;;;;0.70;0.50;;;18.80;1.00;;;;;;2612643;54;20511;-61
2024/04/05 08:15:15;;;;;;;0.60;0.43;;;18.80;1.00;;;;;;2612980;54;20434;-60
2024/04/05 08:17:41;;;;;;;0.60;0.40;;;18.80;1.00;;;;;;2613313;39;20814;-61
2024/04/05 08:20:07;;;;;;;0.60;0.50;;;18.80;1.00;;;;;;2612784;54;20171;-60
2024/04/05 08:22:33;;;;;;;0.70;0.50;;;18.80;1.00;;;;;;2612634;51;20162;-61
2024/04/05 08:25:00;;;;;;;0.67;0.40;;;18.80;1.00;;;;;;2612435;54;20392;-60
2024/04/05 08:27:28;;;;;;;0.70;0.50;;;18.70;1.00;;;;;;2612937;39;20828;-61
2024/04/05 08:29:53;;;;;;;0.60;0.50;;;18.80;1.00;;;;;;2612632;54;20423;-61
2024/04/05 08:32:19;;;;;;;0.67;0.60;;;18.70;1.00;;;;;;2611780;54;20560;-60
2024/04/05 08:34:45;;;;;;;0.60;0.50;;;18.70;1.00;;;;;;2612325;47;20167;-60
2024/04/05 08:37:11;;;;;;;0.70;0.50;;;18.70;1.00;;;;;;2612641;54;20170;-60
2024/04/05 08:39:38;;;;;;;0.60;0.43;;;18.70;1.00;;;;;;2612381;54;20186;-61
2024/04/05 08:42:15;;;;;;;0.60;0.40;;;18.70;1.00;;;;;;2612630;47;20184;-60
2024/04/05 08:44:45;;;;;;;0.70;0.47;;;18.70;1.00;;;;;;2612669;54;21291;-61
2024/04/05 08:47:11;;;;;;;0.60;0.40;;;18.70;1.00;;;;;;2612603;47;20454;-66
2024/04/05 08:49:37;;;;;;;0.60;0.50;;;18.70;1.00;;;;;;2612815;47;20427;-67
2024/04/05 08:52:04;;;;;;;0.60;0.40;;;18.70;1.00;;;;;;2612115;54;20408;-67
2024/04/05 08:54:30;;;;;;;0.60;0.40;;;18.70;1.00;;;;;;2612322;47;21013;-67
2024/04/05 08:56:59;;;;;;;0.60;0.50;;;18.70;1.00;;;;;;2612973;39;20844;-60
2024/04/05 08:59:29;;;;;;;0.60;0.40;;;18.70;1.00;;;;;;2611933;54;20480;-59
2024/04/05 09:02:00;;;;;;;0.60;0.50;;;18.70;1.00;;;;;;2610599;54;20479;-59
2024/04/05 09:04:27;;;;;;;0.60;0.40;;;18.70;1.00;;;;;;2612365;47;20456;-58
2024/04/05 09:06:53;;;;;;;0.60;0.40;;;18.70;1.00;;;;;;2612076;54;20462;-58
2024/04/05 09:09:29;;;;;;;0.60;0.40;;;18.70;1.00;;;;;;2612366;54;20411;-59
2024/04/05 09:12:03;;;;;;;0.60;0.40;;;18.70;1.00;;;;;;2612672;39;20544;-58
2024/04/05 09:14:29;;;;;;;0.60;0.40;;;18.70;1.00;;;;;;2612321;54;20412;-59
2024/04/05 09:16:58;;;;;;;0.60;0.40;;;18.70;1.00;;;;;;2612403;54;20416;-59
2024/04/05 09:19:23;;;;;;;0.60;0.50;;;18.70;1.00;;;;;;2612240;54;20395;-59
2024/04/05 09:21:50;;;;;;;0.60;0.40;;;18.70;1.00;;;;;;2611922;54;20977;-61
2024/04/05 09:24:16;;;;;;;0.60;0.40;;;18.70;1.00;;;;;;2612587;54;20184;-60
2024/04/05 09:26:43;;;;;;;0.60;0.40;;;18.70;1.00;;;;;;2612372;54;20510;-60
2024/04/05 09:29:12;;;;;;;0.60;0.40;;;18.70;1.00;;;;;;2612371;54;20201;-61
2024/04/05 09:31:38;;;;;;;0.60;0.40;;;18.70;1.00;;;;;;2612162;47;20423;-61
2024/04/05 09:34:14;;;;;;;0.60;0.40;;;18.70;1.00;;;;;;2611092;54;20526;-61
2024/04/05 09:36:41;;;;;;;0.60;0.40;;;18.80;1.00;;;;;;2612193;47;20163;-60
2024/04/05 09:39:13;;;;;;;0.60;0.40;;;18.70;1.00;;;;;;2612894;54;20418;-61
2024/04/05 09:41:39;;;;;;;0.60;0.40;;;18.80;1.00;;;;;;2612574;39;20856;-62
2024/04/05 09:44:07;;;;;;;0.60;0.40;;;18.80;1.00;;;;;;2611951;54;20478;-60
2024/04/05 09:46:34;;;;;;;0.60;0.40;;;18.80;1.00;;;;;;2612587;39;20804;-61
2024/04/05 09:49:02;;;;;;;0.60;0.43;;;18.80;1.00;;;;;;2612319;54;20431;-60
2024/04/05 09:51:46;;;;;;;0.60;0.50;;;18.80;1.00;;;;;;2612748;54;20412;-62
2024/04/05 09:54:12;;;;;;;0.60;0.40;;;18.80;1.00;;;;;;2612344;54;20447;-60
2024/04/05 09:56:39;;;;;;;0.60;0.40;;;18.80;1.00;;;;;;2612152;54;20419;-59
2024/04/05 09:59:12;;;;;;;0.60;0.40;;;18.80;1.00;;;;;;2612186;47;20448;-60
2024/04/05 10:01:40;;;;;;;0.60;0.30;;;18.80;1.00;;;;;;2611124;54;20438;-60
2024/04/05 10:04:08;;;;;;;0.60;0.40;;;18.80;1.00;;;;;;2612393;39;20881;-60
2024/04/05 10:06:38;;;;;;;0.60;0.40;;;18.80;1.00;;;;;;2612395;54;20427;-66
2024/04/05 10:09:15;;;;;;;0.70;0.40;;;18.80;1.00;;;;;;2612194;54;20435;-66
2024/04/05 10:11:44;;;;;;;0.60;0.33;;;18.80;1.00;;;;;;2612723;47;20423;-66
2024/04/05 10:14:19;;;;;;;0.60;0.40;;;18.80;1.00;;;;;;2612830;54;20423;-66
2024/04/05 10:16:44;;;;;;;0.60;0.40;;;18.80;1.00;;;;;;2613206;47;20411;-66
2024/04/05 10:19:11;;;;;;;0.60;0.30;;;18.80;1.00;;;;;;2613282;47;20463;-66
2024/04/05 10:21:37;;;;;;;0.60;0.40;;;18.80;1.00;;;;;;2613078;54;20179;-66
2024/04/05 10:24:06;;;;;;;0.60;0.40;;;18.80;1.00;;;;;;2613312;54;20419;-65
2024/04/05 10:26:33;;;;;;;0.70;0.50;;;18.80;1.00;;;;;;2613033;54;20201;-65
2024/04/05 10:29:06;;;;;;;0.60;0.40;;;18.80;1.00;;;;;;2612910;54;20434;-66
2024/04/05 10:31:33;;;;;;;0.60;0.40;;;18.80;1.00;;;;;;2612258;54;20419;-65
2024/04/05 10:34:01;;;;;;;0.60;0.40;;;18.80;1.00;;;;;;2613515;39;20791;-65
2024/04/05 10:36:36;;;;;;;0.60;0.40;;;18.80;1.00;;;;;;2613196;54;20423;-62
2024/04/05 10:39:16;;;;;;;0.60;0.40;;;18.80;1.00;;;;;;2612931;51;20459;-62
2024/04/05 10:41:43;;;;;;;0.60;0.40;;;18.80;1.00;;;;;;2613062;47;20431;-62
2024/04/05 10:44:09;;;;;;;0.60;0.40;;;18.80;1.00;;;;;;2613170;46;20986;-62
2024/04/05 10:46:37;;;;;;;0.60;0.40;;;18.80;1.00;;;;;;2612669;54;20957;-62
2024/04/05 10:49:04;;;;;;;0.60;0.40;;;18.80;1.00;;;;;;2613128;54;20430;-62
2024/04/05 10:51:29;;;;;;;0.60;0.40;;;18.80;1.00;;;;;;2613118;51;20428;-62
2024/04/05 10:53:55;;;;;;;0.60;0.40;;;18.80;1.00;;;;;;2612881;54;20469;-62
2024/04/05 10:56:21;;;;;;;0.60;0.40;;;18.80;1.00;;;;;;2612719;54;20721;-63
2024/04/05 10:58:47;;;;;;;0.60;0.43;;;18.80;1.00;;;;;;2612777;54;20171;-62
2024/04/05 11:01:14;;;;;;;0.60;0.40;;;18.80;1.00;;;;;;2611997;54;20793;-63
2024/04/05 11:03:40;;;;;;;0.60;0.40;;;18.80;1.00;;;;;;2612334;54;20415;-62
2024/04/05 11:06:05;;;;;;;0.60;0.40;;;18.80;1.00;;;;;;2613114;54;21263;-73
2024/04/05 11:08:32;;;;;;;0.60;0.40;;;18.80;1.00;;;;;;2613481;47;20423;-73
2024/04/05 11:10:58;;;;;;;0.60;0.40;;;18.80;1.00;;;;;;2613508;54;20165;-73
2024/04/05 11:13:26;;;;;;;0.60;0.50;;;18.80;1.00;;;;;;2613385;54;20986;-73
2024/04/05 11:16:04;;;;;;;0.70;0.40;;;18.80;1.00;;;;;;2613464;54;20680;-73
2024/04/05 11:18:37;;;;;;;0.60;0.40;;;18.80;1.00;;;;;;2613655;54;20492;-73
2024/04/05 11:21:04;;;;;;;0.70;0.50;;;18.80;1.00;;;;;;2612980;47;20835;-73
2024/04/05 11:23:30;;;;;;;0.60;0.40;;;18.80;1.00;;;;;;2612855;54;20410;-73
2024/04/05 11:25:57;;;;;;;0.60;0.50;;;18.80;1.00;;;;;;2612846;51;20416;-72
2024/04/05 11:28:24;;;;;;;0.60;0.40;;;18.80;1.00;;;;;;2613466;39;20585;-72
2024/04/05 11:30:51;;;;;;;0.60;0.40;;;18.80;1.00;;;;;;2612960;54;20403;-73
2024/04/05 11:33:17;;;;;;;0.60;0.30;;;18.80;1.00;;;;;;2612806;51;20511;-72
2024/04/05 11:35:44;;;;;;;0.70;0.40;;;18.90;1.00;;;;;;2612750;46;21001;-72
2024/04/05 11:38:09;;;;;;;0.70;0.40;;;18.90;1.00;;;;;;2613185;54;20155;-73
2024/04/05 11:40:35;;;;;;;0.60;0.40;;;18.90;1.00;;;;;;2613143;54;20459;-73
2024/04/05 11:43:02;;;;;;;0.60;0.40;;;18.90;1.00;;;;;;2613168;51;20162;-72
2024/04/05 11:45:28;;;;;;;0.60;0.40;;;18.90;1.00;;;;;;2613118;47;20155;-61
2024/04/05 11:47:54;;;;;;;0.70;0.50;;;18.90;1.00;;;;;;2612495;54;20414;-60
2024/04/05 11:50:20;;;;;;;4.57;2.10;;;18.90;1.00;;;;;;2612751;54;20154;-60
2024/04/05 11:52:45;;;;;;;0.60;0.40;;;18.90;1.00;;;;;;2612583;54;20414;-60
2024/04/05 11:55:11;;;;;;;0.60;0.40;;;18.90;1.00;;;;;;2613175;54;20246;-60
2024/04/05 11:57:37;;;;;;;0.60;0.40;;;18.90;1.00;;;;;;2612845;54;20166;-60
2024/04/05 12:00:10;;;;;;;0.60;0.40;;;18.90;1.00;;;;;;2612610;39;20555;-60
2024/04/05 12:02:37;;;;;;;0.60;0.40;;;18.90;1.00;;;;;;2611854;39;20547;-60
2024/04/05 12:05:03;;;;;;;0.60;0.30;;;18.90;1.00;;;;;;2612684;54;20554;-60
2024/04/05 12:07:28;;;;;;;1.63;1.53;;;18.90;1.00;;;;;;2612795;39;20797;-60
2024/04/05 12:09:54;;;;;;;0.60;0.40;;;18.90;1.00;;;;;;2612638;54;20154;-60
2024/04/05 12:12:20;;;;;;;0.60;0.40;;;18.90;1.00;;;;;;2612951;54;20150;-61
2024/04/05 12:14:46;;;;;;;0.60;0.40;;;18.90;1.00;;;;;;2613117;39;20672;-61
2024/04/05 12:17:12;;;;;;;0.60;0.40;;;18.90;1.00;;;;;;2612764;54;20223;-59
2024/04/05 12:19:39;;;;;;;0.60;0.40;;;19.00;1.00;;;;;;2613003;39;20799;-60
2024/04/05 12:22:05;;;;;;;0.60;0.40;;;19.00;1.00;;;;;;2612596;54;20191;-59
2024/04/05 12:24:31;;;;;;;0.60;0.40;;;19.00;1.00;;;;;;2613268;39;20901;-59
2024/04/05 12:26:57;;;;;;;0.60;0.40;;;19.00;1.00;;;;;;2612839;39;20805;-63
2024/04/05 12:29:23;;;;;;;0.60;0.40;;;18.90;1.00;;;;;;2612498;54;20420;-63
2024/04/05 12:31:52;;;;;;;0.60;0.40;;;18.90;1.00;;;;;;2612670;54;20164;-63
2024/04/05 12:34:18;;;;;;;0.60;0.50;;;19.00;1.00;;;;;;2612482;54;20162;-63
2024/04/05 12:36:43;;;;;;;0.60;0.40;;;19.00;1.00;;;;;;2612362;47;20952;-62
2024/04/05 12:39:25;;;;;;;0.60;0.40;;;19.00;1.00;;;;;;2612535;47;20175;-62
2024/04/05 12:41:52;;;;;;;0.60;0.40;;;19.00;1.00;;;;;;2612407;47;20179;-63
2024/04/05 12:44:21;;;;;;;0.60;0.40;;;19.00;1.00;;;;;;2613166;39;20837;-62
2024/04/05 12:46:50;;;;;;;0.60;0.40;;;19.00;1.00;;;;;;2613040;39;20820;-63
2024/04/05 12:49:16;;;;;;;0.60;0.40;;;18.90;1.00;;;;;;2612373;54;20419;-62
2024/04/05 12:51:42;;;;;;;0.60;0.40;;;19.00;1.00;;;;;;2613038;39;20811;-63
2024/04/05 12:54:08;;;;;;;0.60;0.40;;;19.00;1.00;;;;;;2612378;47;20467;-64
2024/04/05 12:56:34;;;;;;;0.60;0.40;;;19.00;1.00;;;;;;2612388;47;20431;-62